Briefing drone pour Valence (LFLU)

Rechercher une autre localisation

Conditions de vol :


Nous sommes le : Mercredi 29 juin 2022
Il est 05:50 UTC (07:50 LT)

Lever de soleil : 03:30 UTC (05:30 LT)
Coucher de soleil : 19:57 UTC (21:57 LT)

Météo

L'essentiel des conditions de vol

VIGILANCE MÉTÉO FRANCE - Drôme (26)
Pas de vigilances particulieres
CARTE TEMSI
CARTES DES FRONTS
METAR de LFLU
LFLU 281800Z AUTO 05008KT 9999 OVC060 24/15 Q1014

Date d'émission: 28/06/2022
Heure d'émission: 18:00 UTC
Vent: 050° pour 8 KT (15 km/h)
Visibilité horizontale: > 10 km
Plafond :
- Couvert à 6000ft (1829m)
Température: 24 °C
Point de rosée: 15 °C
Humidité: 57%
Pression (QNH): 1014 hPa
Prévision 24h pour Valence
Vent : 177° pour 1 KT (5 km/h)
Temperature Maxi: 17 °C
Temperature Min: 17 °C
Humidité : 73%
Condition : Ciel dégagé



Warning: count(): Parameter must be an array or an object that implements Countable in /homepages/6/d509196549/htdocs/droneoxygene/briefing.php on line 743
WEBCAM POUR VALENCE

Réglementation

Voler en sécurité

CARTES AERONAUTIQUE 1/500.000
CARTES VAC (LFLU)
SUP AIP




Chargement des AIP...
NOTAM (VALENCE + Terrain à proximité / FIR )




Chargement des NOTAMS...
CONTACT PREFECTURE 26
Drôme (26) : ddt-satem@drome.gouv.fr


Avertissement : Les données mises à disposition sont indicatives. Oxygène Drone ne pourra être tenu responsable de dégâts causés aux biens et aux personnes.